»·PEaware :: SWA1900 KSAN-KSJC

SWA1900 :: KSAN-KSJC

FLIGHT INFORMATION

Flight Status: Arrived
Operator:
Southwest Airlines
More flights by this operator :: More flights under this callsign
Pilot: Anonymous 10460 (10460)
Aircraft: BOEING 737-800
(B738)
More flights by this aircraft type
Origin: KSAN San Diego Intl-Lindbergh
United States
Destination: KSJC Mineta San Jose Intl
United States
More flights between these airports :: More routes between these airports
Route: PADRZ2 IKAYE TESEA SCTRR TROXX SILCN6
File this flight plan on PilotEdge
Remarks:
Altitude:
(Current/Filed)
30,000ft
Speed:
(Current/Filed)
460kts
Departed: 08-Jan-23 05:58 PM
Arrived: 08-Jan-23 07:04 PM
Distance/Time
Traveled:
362nm/1:06
Distance/Time
To Go:
Arrived

Flight Plot

Page will automatically refresh every two minutes.

Flight plan parsing failed; only flown route is shown


Map Options




Map Legend


Flown Route
Filed Route
Departure Airport
Arrival Airport
Navaid (VOR, NDB)
Fix

Horizontal Profiles

Position Reports

Time Latitude Longitude Heading Altitude Ground
Speed
08-Jan-23 17:24 32.733397 -117.197753 283 19ft 0kts
08-Jan-23 17:25 32.733397 -117.197753 283 19ft 0kts
08-Jan-23 17:26 32.733397 -117.197753 283 19ft 0kts
08-Jan-23 17:27 32.733397 -117.197753 283 19ft 0kts
08-Jan-23 17:27 32.733397 -117.197753 283 19ft 0kts
08-Jan-23 17:28 32.733397 -117.197753 283 19ft 0kts
08-Jan-23 17:30 32.733397 -117.197753 283 19ft 0kts
08-Jan-23 17:31 32.733397 -117.197753 283 19ft 0kts
08-Jan-23 17:32 32.733397 -117.197753 283 18ft 0kts
08-Jan-23 17:32 32.733397 -117.197753 283 18ft 0kts
08-Jan-23 17:33 32.733397 -117.197753 283 18ft 0kts
08-Jan-23 17:34 32.733397 -117.197753 283 18ft 0kts
08-Jan-23 17:35 32.733397 -117.197753 283 18ft 0kts
08-Jan-23 17:37 32.733397 -117.197753 283 18ft 0kts
08-Jan-23 17:37 32.733397 -117.197753 283 18ft 0kts
08-Jan-23 17:38 32.733397 -117.197753 283 18ft 0kts
08-Jan-23 17:39 32.733397 -117.197753 283 18ft 0kts
08-Jan-23 17:40 32.733397 -117.197753 283 18ft 0kts
08-Jan-23 17:41 32.733397 -117.197753 283 18ft 0kts
08-Jan-23 17:42 32.733397 -117.197753 283 18ft 0kts
08-Jan-23 17:43 32.733397 -117.197753 283 18ft 0kts
08-Jan-23 17:44 32.733397 -117.197753 283 18ft 0kts
08-Jan-23 17:45 32.733397 -117.197753 283 18ft 0kts
08-Jan-23 17:46 32.733397 -117.197753 283 18ft 0kts
08-Jan-23 17:47 32.733292 -117.197247 283 22ft 2kts
08-Jan-23 17:48 32.733250 -117.197041 283 20ft 0kts
08-Jan-23 17:49 32.733250 -117.197041 283 20ft 0kts
08-Jan-23 17:50 32.733250 -117.197041 283 19ft 0kts
08-Jan-23 17:51 32.734015 -117.196885 40 21ft 9kts
08-Jan-23 17:52 32.733539 -117.193706 106 21ft 12kts
08-Jan-23 17:53 32.732003 -117.187463 107 23ft 19kts
08-Jan-23 17:54 32.730349 -117.180597 106 16ft 21kts
08-Jan-23 17:55 32.729508 -117.176823 74 16ft 0kts
08-Jan-23 17:56 32.729582 -117.176502 74 19ft 9kts
08-Jan-23 17:57 32.731487 -117.181209 285 18ft 107kts
08-Jan-23 17:58 32.750316 -117.230991 305 2528ft 206kts
08-Jan-23 17:59 32.788125 -117.297852 302 4504ft 266kts
08-Jan-23 18:00 32.832158 -117.369278 305 8177ft 273kts
08-Jan-23 18:01 32.880569 -117.444042 304 10700ft 316kts
08-Jan-23 18:02 32.938901 -117.534629 304 12981ft 353kts
08-Jan-23 18:03 32.999039 -117.628501 304 14989ft 361kts
08-Jan-23 18:04 33.060175 -117.723969 305 15751ft 367kts
08-Jan-23 18:05 33.138474 -117.805576 315 18361ft 382kts
08-Jan-23 18:06 33.219436 -117.890582 311 20612ft 389kts
08-Jan-23 18:07 33.296175 -117.983447 310 22734ft 397kts
08-Jan-23 18:08 33.374734 -118.077762 311 24604ft 403kts
08-Jan-23 18:09 33.454424 -118.173311 311 26307ft 407kts
08-Jan-23 18:10 33.534772 -118.269917 311 27839ft 412kts
08-Jan-23 18:11 33.615372 -118.367071 312 29737ft 405kts
08-Jan-23 18:12 33.694893 -118.463236 312 30191ft 405kts
08-Jan-23 18:13 33.774027 -118.559183 312 30196ft 402kts
08-Jan-23 18:14 33.852459 -118.654560 311 30200ft 403kts
08-Jan-23 18:15 33.931280 -118.750675 311 30198ft 404kts
08-Jan-23 18:16 34.010607 -118.847677 311 30202ft 407kts
08-Jan-23 18:17 34.090089 -118.945148 311 30197ft 408kts
08-Jan-23 18:18 34.169895 -119.042599 312 30191ft 409kts
08-Jan-23 18:19 34.251061 -119.138999 312 30192ft 409kts
08-Jan-23 18:20 34.331907 -119.235490 312 30212ft 406kts
08-Jan-23 18:21 34.412119 -119.331636 311 30201ft 406kts
08-Jan-23 18:22 34.492278 -119.427966 311 30203ft 406kts
08-Jan-23 18:23 34.572581 -119.524794 311 30183ft 408kts
08-Jan-23 18:24 34.652555 -119.621484 311 30181ft 407kts
08-Jan-23 18:25 34.732551 -119.718483 311 30159ft 407kts
08-Jan-23 18:26 34.812640 -119.815875 311 30157ft 408kts
08-Jan-23 18:27 34.892945 -119.913798 311 30167ft 407kts
08-Jan-23 18:28 34.972695 -120.011360 310 30159ft 407kts
08-Jan-23 18:29 35.052302 -120.109016 310 30152ft 402kts
08-Jan-23 18:30 35.130585 -120.205350 310 30145ft 400kts
08-Jan-23 18:31 35.214569 -120.295376 317 30137ft 405kts
08-Jan-23 18:32 35.304947 -120.377974 317 30127ft 406kts
08-Jan-23 18:33 35.395551 -120.461126 316 30125ft 408kts
08-Jan-23 18:34 35.486446 -120.544787 316 30109ft 409kts
08-Jan-23 18:35 35.580367 -120.624494 320 30111ft 412kts
08-Jan-23 18:36 35.677285 -120.699981 320 30108ft 413kts
08-Jan-23 18:37 35.773914 -120.775980 320 30110ft 412kts
08-Jan-23 18:38 35.870599 -120.852302 320 30118ft 412kts
08-Jan-23 18:39 35.965758 -120.927549 319 30112ft 392kts
08-Jan-23 18:40 36.054084 -121.003465 314 30013ft 377kts
08-Jan-23 18:41 36.137056 -121.083695 315 27415ft 379kts
08-Jan-23 18:42 36.219081 -121.161927 315 25545ft 367kts
08-Jan-23 18:43 36.299243 -121.238620 314 23659ft 362kts
08-Jan-23 18:44 36.378832 -121.314955 315 21480ft 363kts
08-Jan-23 18:45 36.458765 -121.392070 315 19427ft 363kts
08-Jan-23 18:46 36.542587 -121.462222 325 17453ft 369kts
08-Jan-23 18:47 36.631743 -121.521114 325 15762ft 359kts
08-Jan-23 18:48 36.718717 -121.580393 325 14072ft 354kts
08-Jan-23 18:49 36.804815 -121.639217 326 12162ft 352kts
08-Jan-23 18:50 36.889195 -121.697063 327 10613ft 338kts
08-Jan-23 18:51 36.967441 -121.750789 327 10039ft 303kts
08-Jan-23 18:52 37.040481 -121.801069 327 8860ft 297kts
08-Jan-23 18:53 37.113193 -121.851030 327 7640ft 297kts
08-Jan-23 18:54 37.184679 -121.899969 326 6436ft 282kts
08-Jan-23 18:55 37.251674 -121.945871 328 5303ft 275kts
08-Jan-23 18:56 37.310656 -121.991716 312 4852ft 220kts
08-Jan-23 18:57 37.352820 -122.038852 314 3467ft 198kts
08-Jan-23 18:58 37.396479 -122.070395 36 2119ft 164kts
08-Jan-23 18:59 37.428918 -122.031857 63 1780ft 159kts
08-Jan-23 19:00 37.414248 -121.988497 126 1075ft 139kts
08-Jan-23 19:01 37.386067 -121.955413 142 460ft 138kts
08-Jan-23 19:02 37.360544 -121.927468 138 68ft 76kts
08-Jan-23 19:03 37.358403 -121.923559 52 66ft 1kts
08-Jan-23 19:04 37.359923 -121.921413 18 68ft 9kts
08-Jan-23 19:05 37.362419 -121.923894 318 69ft 14kts
08-Jan-23 19:06 37.363687 -121.923963 49 72ft 0kts
08-Jan-23 19:07 37.363687 -121.923963 49 72ft 0kts

Navigation Log

Ident Type
Flight plan parsing failed, navigation log unavailable